sensor_id;sensor_type;location;lat;lon;timestamp;P1;durP1;ratioP1;P2;durP2;ratioP2
7199;SDS011;3641;49.082;8.200;2023-11-21T00:00:38;12.57;;;3.15;;
7199;SDS011;3641;49.082;8.200;2023-11-21T00:03:04;13.35;;;2.70;;
7199;SDS011;3641;49.082;8.200;2023-11-21T00:05:33;8.35;;;2.80;;
7199;SDS011;3641;49.082;8.200;2023-11-21T00:08:00;11.82;;;2.58;;
7199;SDS011;3641;49.082;8.200;2023-11-21T00:10:26;9.10;;;2.70;;
7199;SDS011;3641;49.082;8.200;2023-11-21T00:12:53;13.38;;;4.22;;
7199;SDS011;3641;49.082;8.200;2023-11-21T00:15:20;11.98;;;2.60;;
7199;SDS011;3641;49.082;8.200;2023-11-21T00:17:46;12.35;;;3.05;;
7199;SDS011;3641;49.082;8.200;2023-11-21T00:20:12;6.97;;;2.58;;
7199;SDS011;3641;49.082;8.200;2023-11-21T00:22:40;11.70;;;2.50;;
7199;SDS011;3641;49.082;8.200;2023-11-21T00:25:06;8.32;;;2.70;;
7199;SDS011;3641;49.082;8.200;2023-11-21T00:27:34;13.85;;;2.70;;
7199;SDS011;3641;49.082;8.200;2023-11-21T00:30:01;9.80;;;2.30;;
7199;SDS011;3641;49.082;8.200;2023-11-21T00:32:29;10.15;;;2.30;;
7199;SDS011;3641;49.082;8.200;2023-11-21T00:34:55;9.88;;;2.28;;
7199;SDS011;3641;49.082;8.200;2023-11-21T00:37:22;11.35;;;3.42;;
7199;SDS011;3641;49.082;8.200;2023-11-21T00:39:50;9.18;;;1.95;;
7199;SDS011;3641;49.082;8.200;2023-11-21T00:42:16;7.97;;;2.65;;
7199;SDS011;3641;49.082;8.200;2023-11-21T00:44:43;13.10;;;3.05;;
7199;SDS011;3641;49.082;8.200;2023-11-21T00:47:09;8.63;;;2.60;;
7199;SDS011;3641;49.082;8.200;2023-11-21T00:49:36;8.45;;;2.03;;
7199;SDS011;3641;49.082;8.200;2023-11-21T00:52:04;5.18;;;2.10;;
7199;SDS011;3641;49.082;8.200;2023-11-21T00:54:31;10.02;;;2.10;;
7199;SDS011;3641;49.082;8.200;2023-11-21T00:56:59;10.30;;;2.28;;
7199;SDS011;3641;49.082;8.200;2023-11-21T00:59:26;6.05;;;2.00;;
7199;SDS011;3641;49.082;8.200;2023-11-21T01:01:52;7.97;;;2.33;;
7199;SDS011;3641;49.082;8.200;2023-11-21T01:04:19;6.78;;;2.15;;
7199;SDS011;3641;49.082;8.200;2023-11-21T01:06:45;10.48;;;2.45;;
7199;SDS011;3641;49.082;8.200;2023-11-21T01:09:11;6.57;;;2.33;;
7199;SDS011;3641;49.082;8.200;2023-11-21T01:11:38;5.25;;;1.73;;
7199;SDS011;3641;49.082;8.200;2023-11-21T01:14:05;6.40;;;1.73;;
7199;SDS011;3641;49.082;8.200;2023-11-21T01:16:33;6.07;;;1.70;;
7199;SDS011;3641;49.082;8.200;2023-11-21T01:19:00;7.55;;;2.40;;
7199;SDS011;3641;49.082;8.200;2023-11-21T01:21:27;8.40;;;2.10;;
7199;SDS011;3641;49.082;8.200;2023-11-21T01:23:54;4.78;;;2.20;;
7199;SDS011;3641;49.082;8.200;2023-11-21T01:26:21;5.55;;;1.95;;
7199;SDS011;3641;49.082;8.200;2023-11-21T01:28:47;5.78;;;1.75;;
7199;SDS011;3641;49.082;8.200;2023-11-21T01:31:15;7.47;;;1.98;;
7199;SDS011;3641;49.082;8.200;2023-11-21T01:33:42;5.50;;;1.90;;
7199;SDS011;3641;49.082;8.200;2023-11-21T01:36:09;7.18;;;1.70;;
7199;SDS011;3641;49.082;8.200;2023-11-21T01:38:36;3.78;;;1.55;;
7199;SDS011;3641;49.082;8.200;2023-11-21T01:41:02;5.95;;;1.58;;
7199;SDS011;3641;49.082;8.200;2023-11-21T01:43:29;9.23;;;2.78;;
7199;SDS011;3641;49.082;8.200;2023-11-21T01:45:56;4.05;;;1.30;;
7199;SDS011;3641;49.082;8.200;2023-11-21T01:48:25;10.10;;;1.90;;
7199;SDS011;3641;49.082;8.200;2023-11-21T01:50:52;7.35;;;1.67;;
7199;SDS011;3641;49.082;8.200;2023-11-21T01:53:18;5.25;;;1.65;;
7199;SDS011;3641;49.082;8.200;2023-11-21T01:55:45;7.90;;;2.00;;
7199;SDS011;3641;49.082;8.200;2023-11-21T01:58:12;10.20;;;1.98;;
7199;SDS011;3641;49.082;8.200;2023-11-21T02:00:39;4.55;;;1.58;;
7199;SDS011;3641;49.082;8.200;2023-11-21T02:03:06;7.18;;;1.88;;
7199;SDS011;3641;49.082;8.200;2023-11-21T02:05:34;4.57;;;1.60;;
7199;SDS011;3641;49.082;8.200;2023-11-21T02:08:00;7.07;;;1.75;;
7199;SDS011;3641;49.082;8.200;2023-11-21T02:10:28;7.10;;;1.70;;
7199;SDS011;3641;49.082;8.200;2023-11-21T02:12:56;7.32;;;1.98;;
7199;SDS011;3641;49.082;8.200;2023-11-21T02:15:23;4.40;;;1.80;;
7199;SDS011;3641;49.082;8.200;2023-11-21T02:17:53;7.80;;;1.80;;
7199;SDS011;3641;49.082;8.200;2023-11-21T02:20:20;6.70;;;1.75;;
7199;SDS011;3641;49.082;8.200;2023-11-21T02:22:51;6.30;;;2.38;;
7199;SDS011;3641;49.082;8.200;2023-11-21T02:25:22;4.18;;;1.63;;
7199;SDS011;3641;49.082;8.200;2023-11-21T02:27:49;4.60;;;1.77;;
7199;SDS011;3641;49.082;8.200;2023-11-21T02:30:16;5.93;;;1.67;;
7199;SDS011;3641;49.082;8.200;2023-11-21T02:32:43;5.57;;;1.70;;
7199;SDS011;3641;49.082;8.200;2023-11-21T02:35:11;3.72;;;1.50;;
7199;SDS011;3641;49.082;8.200;2023-11-21T02:37:37;6.57;;;2.28;;
7199;SDS011;3641;49.082;8.200;2023-11-21T02:40:06;5.22;;;1.83;;
7199;SDS011;3641;49.082;8.200;2023-11-21T02:42:35;7.18;;;1.90;;
7199;SDS011;3641;49.082;8.200;2023-11-21T02:45:01;7.00;;;1.95;;
7199;SDS011;3641;49.082;8.200;2023-11-21T02:47:28;5.20;;;1.73;;
7199;SDS011;3641;49.082;8.200;2023-11-21T02:49:55;5.78;;;2.00;;
7199;SDS011;3641;49.082;8.200;2023-11-21T02:52:21;9.75;;;3.67;;
7199;SDS011;3641;49.082;8.200;2023-11-21T02:54:47;5.13;;;2.00;;
7199;SDS011;3641;49.082;8.200;2023-11-21T02:57:15;8.70;;;1.90;;
7199;SDS011;3641;49.082;8.200;2023-11-21T02:59:42;8.98;;;2.00;;
7199;SDS011;3641;49.082;8.200;2023-11-21T03:02:08;5.60;;;2.00;;
7199;SDS011;3641;49.082;8.200;2023-11-21T03:04:34;8.02;;;2.10;;
7199;SDS011;3641;49.082;8.200;2023-11-21T03:07:01;6.05;;;2.00;;
7199;SDS011;3641;49.082;8.200;2023-11-21T03:09:27;4.25;;;1.90;;
7199;SDS011;3641;49.082;8.200;2023-11-21T03:11:54;12.45;;;2.00;;
7199;SDS011;3641;49.082;8.200;2023-11-21T03:14:21;6.10;;;2.10;;
7199;SDS011;3641;49.082;8.200;2023-11-21T03:16:48;5.40;;;1.80;;
7199;SDS011;3641;49.082;8.200;2023-11-21T03:19:14;4.22;;;1.90;;
7199;SDS011;3641;49.082;8.200;2023-11-21T03:21:41;5.38;;;2.20;;
7199;SDS011;3641;49.082;8.200;2023-11-21T03:24:07;5.07;;;2.03;;
7199;SDS011;3641;49.082;8.200;2023-11-21T03:26:34;7.22;;;2.10;;
7199;SDS011;3641;49.082;8.200;2023-11-21T03:29:02;6.45;;;2.03;;
7199;SDS011;3641;49.082;8.200;2023-11-21T03:31:31;4.93;;;1.80;;
7199;SDS011;3641;49.082;8.200;2023-11-21T03:33:57;6.07;;;1.80;;
7199;SDS011;3641;49.082;8.200;2023-11-21T03:36:24;3.67;;;1.73;;
7199;SDS011;3641;49.082;8.200;2023-11-21T03:38:50;4.43;;;1.77;;
7199;SDS011;3641;49.082;8.200;2023-11-21T03:41:17;8.05;;;1.85;;
7199;SDS011;3641;49.082;8.200;2023-11-21T03:43:43;5.75;;;1.63;;
7199;SDS011;3641;49.082;8.200;2023-11-21T03:46:10;6.30;;;1.73;;
7199;SDS011;3641;49.082;8.200;2023-11-21T03:48:38;3.17;;;1.80;;
7199;SDS011;3641;49.082;8.200;2023-11-21T03:51:05;4.57;;;1.67;;
7199;SDS011;3641;49.082;8.200;2023-11-21T03:53:32;7.22;;;1.80;;
7199;SDS011;3641;49.082;8.200;2023-11-21T03:55:58;6.82;;;1.80;;
7199;SDS011;3641;49.082;8.200;2023-11-21T03:58:26;6.10;;;1.95;;
7199;SDS011;3641;49.082;8.200;2023-11-21T04:00:52;4.97;;;1.70;;
7199;SDS011;3641;49.082;8.200;2023-11-21T04:03:19;6.28;;;2.17;;
7199;SDS011;3641;49.082;8.200;2023-11-21T04:05:47;3.55;;;1.67;;
7199;SDS011;3641;49.082;8.200;2023-11-21T04:08:13;6.55;;;2.00;;
7199;SDS011;3641;49.082;8.200;2023-11-21T04:10:39;5.20;;;1.95;;
7199;SDS011;3641;49.082;8.200;2023-11-21T04:13:07;8.75;;;1.83;;
7199;SDS011;3641;49.082;8.200;2023-11-21T04:15:33;3.25;;;1.60;;
7199;SDS011;3641;49.082;8.200;2023-11-21T04:18:00;7.70;;;1.85;;
7199;SDS011;3641;49.082;8.200;2023-11-21T04:20:26;5.95;;;1.60;;
7199;SDS011;3641;49.082;8.200;2023-11-21T04:22:54;4.47;;;1.70;;
7199;SDS011;3641;49.082;8.200;2023-11-21T04:25:21;4.57;;;1.55;;
7199;SDS011;3641;49.082;8.200;2023-11-21T04:27:48;5.32;;;1.33;;
7199;SDS011;3641;49.082;8.200;2023-11-21T04:30:15;3.70;;;1.50;;
7199;SDS011;3641;49.082;8.200;2023-11-21T04:32:41;3.90;;;1.73;;
7199;SDS011;3641;49.082;8.200;2023-11-21T04:35:08;6.20;;;1.60;;
7199;SDS011;3641;49.082;8.200;2023-11-21T04:37:35;3.08;;;1.45;;
7199;SDS011;3641;49.082;8.200;2023-11-21T04:40:03;7.28;;;2.45;;
7199;SDS011;3641;49.082;8.200;2023-11-21T04:42:32;5.13;;;1.80;;
7199;SDS011;3641;49.082;8.200;2023-11-21T04:44:59;4.70;;;1.70;;
7199;SDS011;3641;49.082;8.200;2023-11-21T04:47:26;3.40;;;1.63;;
7199;SDS011;3641;49.082;8.200;2023-11-21T04:49:52;5.55;;;2.10;;
7199;SDS011;3641;49.082;8.200;2023-11-21T04:52:19;6.72;;;1.90;;
7199;SDS011;3641;49.082;8.200;2023-11-21T04:54:45;5.45;;;2.00;;
7199;SDS011;3641;49.082;8.200;2023-11-21T04:57:14;6.97;;;1.80;;
7199;SDS011;3641;49.082;8.200;2023-11-21T04:59:44;5.13;;;2.25;;
7199;SDS011;3641;49.082;8.200;2023-11-21T05:02:10;3.17;;;1.92;;
7199;SDS011;3641;49.082;8.200;2023-11-21T05:04:37;5.20;;;2.20;;
7199;SDS011;3641;49.082;8.200;2023-11-21T05:07:03;6.28;;;3.38;;
7199;SDS011;3641;49.082;8.200;2023-11-21T05:09:30;8.45;;;2.47;;
7199;SDS011;3641;49.082;8.200;2023-11-21T05:11:57;7.35;;;2.22;;
7199;SDS011;3641;49.082;8.200;2023-11-21T05:14:26;4.85;;;2.15;;
7199;SDS011;3641;49.082;8.200;2023-11-21T05:16:52;6.47;;;2.70;;
7199;SDS011;3641;49.082;8.200;2023-11-21T05:19:19;6.22;;;2.95;;
7199;SDS011;3641;49.082;8.200;2023-11-21T05:21:46;8.65;;;2.60;;
7199;SDS011;3641;49.082;8.200;2023-11-21T05:24:12;4.95;;;2.28;;
7199;SDS011;3641;49.082;8.200;2023-11-21T05:26:39;8.25;;;2.97;;
7199;SDS011;3641;49.082;8.200;2023-11-21T05:29:05;6.70;;;2.92;;
7199;SDS011;3641;49.082;8.200;2023-11-21T05:31:33;5.95;;;2.63;;
7199;SDS011;3641;49.082;8.200;2023-11-21T05:33:59;7.82;;;2.92;;
7199;SDS011;3641;49.082;8.200;2023-11-21T05:36:26;4.55;;;2.90;;
7199;SDS011;3641;49.082;8.200;2023-11-21T05:38:52;9.77;;;3.10;;
7199;SDS011;3641;49.082;8.200;2023-11-21T05:41:19;8.80;;;3.30;;
7199;SDS011;3641;49.082;8.200;2023-11-21T05:43:46;7.03;;;3.83;;
7199;SDS011;3641;49.082;8.200;2023-11-21T05:46:13;6.35;;;3.60;;
7199;SDS011;3641;49.082;8.200;2023-11-21T05:48:41;4.30;;;3.03;;
7199;SDS011;3641;49.082;8.200;2023-11-21T05:51:07;15.18;;;4.47;;
7199;SDS011;3641;49.082;8.200;2023-11-21T05:53:34;6.82;;;3.58;;
7199;SDS011;3641;49.082;8.200;2023-11-21T05:56:00;9.20;;;3.85;;
7199;SDS011;3641;49.082;8.200;2023-11-21T05:58:28;10.38;;;4.10;;
7199;SDS011;3641;49.082;8.200;2023-11-21T06:00:55;10.52;;;3.90;;
7199;SDS011;3641;49.082;8.200;2023-11-21T06:03:22;6.20;;;3.83;;
7199;SDS011;3641;49.082;8.200;2023-11-21T06:05:49;9.20;;;3.97;;
7199;SDS011;3641;49.082;8.200;2023-11-21T06:08:16;7.65;;;3.90;;
7199;SDS011;3641;49.082;8.200;2023-11-21T06:10:42;11.52;;;4.13;;
7199;SDS011;3641;49.082;8.200;2023-11-21T06:13:09;7.97;;;4.50;;
7199;SDS011;3641;49.082;8.200;2023-11-21T06:15:36;9.10;;;4.10;;
7199;SDS011;3641;49.082;8.200;2023-11-21T06:18:02;11.15;;;4.60;;
7199;SDS011;3641;49.082;8.200;2023-11-21T06:20:30;9.57;;;4.30;;
7199;SDS011;3641;49.082;8.200;2023-11-21T06:22:58;10.18;;;4.25;;
7199;SDS011;3641;49.082;8.200;2023-11-21T06:25:28;10.10;;;4.00;;
7199;SDS011;3641;49.082;8.200;2023-11-21T06:27:58;8.50;;;4.82;;
7199;SDS011;3641;49.082;8.200;2023-11-21T06:30:24;12.20;;;5.30;;
7199;SDS011;3641;49.082;8.200;2023-11-21T06:32:50;13.73;;;5.55;;
7199;SDS011;3641;49.082;8.200;2023-11-21T06:35:17;7.85;;;4.50;;
7199;SDS011;3641;49.082;8.200;2023-11-21T06:37:44;10.70;;;4.80;;
7199;SDS011;3641;49.082;8.200;2023-11-21T06:40:14;9.93;;;5.05;;
7199;SDS011;3641;49.082;8.200;2023-11-21T06:42:41;10.15;;;5.07;;
7199;SDS011;3641;49.082;8.200;2023-11-21T06:45:09;11.68;;;5.53;;
7199;SDS011;3641;49.082;8.200;2023-11-21T06:47:36;9.85;;;5.30;;
7199;SDS011;3641;49.082;8.200;2023-11-21T06:50:03;11.35;;;5.72;;
7199;SDS011;3641;49.082;8.200;2023-11-21T06:52:30;15.05;;;5.65;;
7199;SDS011;3641;49.082;8.200;2023-11-21T06:54:56;7.95;;;5.13;;
7199;SDS011;3641;49.082;8.200;2023-11-21T06:57:24;11.82;;;5.60;;
7199;SDS011;3641;49.082;8.200;2023-11-21T06:59:50;17.80;;;5.55;;
7199;SDS011;3641;49.082;8.200;2023-11-21T07:02:17;9.55;;;5.22;;
7199;SDS011;3641;49.082;8.200;2023-11-21T07:04:44;9.80;;;4.85;;
7199;SDS011;3641;49.082;8.200;2023-11-21T07:07:11;8.57;;;5.40;;
7199;SDS011;3641;49.082;8.200;2023-11-21T07:09:37;10.23;;;5.15;;
7199;SDS011;3641;49.082;8.200;2023-11-21T07:12:04;11.52;;;5.40;;
7199;SDS011;3641;49.082;8.200;2023-11-21T07:14:33;10.05;;;5.80;;
7199;SDS011;3641;49.082;8.200;2023-11-21T07:17:00;8.82;;;5.65;;
7199;SDS011;3641;49.082;8.200;2023-11-21T07:19:26;12.70;;;5.90;;
7199;SDS011;3641;49.082;8.200;2023-11-21T07:21:54;15.02;;;5.97;;
7199;SDS011;3641;49.082;8.200;2023-11-21T07:24:20;12.02;;;6.28;;
7199;SDS011;3641;49.082;8.200;2023-11-21T07:26:47;11.82;;;6.00;;
7199;SDS011;3641;49.082;8.200;2023-11-21T07:29:14;12.55;;;6.03;;
7199;SDS011;3641;49.082;8.200;2023-11-21T07:31:41;8.60;;;4.53;;
7199;SDS011;3641;49.082;8.200;2023-11-21T07:34:08;10.63;;;5.90;;
7199;SDS011;3641;49.082;8.200;2023-11-21T07:36:34;12.13;;;6.47;;
7199;SDS011;3641;49.082;8.200;2023-11-21T07:39:02;11.00;;;6.13;;
7199;SDS011;3641;49.082;8.200;2023-11-21T07:41:28;9.45;;;5.65;;
7199;SDS011;3641;49.082;8.200;2023-11-21T07:43:55;8.70;;;4.78;;
7199;SDS011;3641;49.082;8.200;2023-11-21T07:46:22;8.23;;;5.15;;
7199;SDS011;3641;49.082;8.200;2023-11-21T07:48:50;15.02;;;6.22;;
7199;SDS011;3641;49.082;8.200;2023-11-21T07:51:18;14.70;;;6.20;;
7199;SDS011;3641;49.082;8.200;2023-11-21T07:53:44;10.15;;;5.45;;
7199;SDS011;3641;49.082;8.200;2023-11-21T07:56:11;9.52;;;5.72;;
7199;SDS011;3641;49.082;8.200;2023-11-21T07:58:38;10.00;;;5.03;;
7199;SDS011;3641;49.082;8.200;2023-11-21T08:01:04;7.47;;;4.75;;
7199;SDS011;3641;49.082;8.200;2023-11-21T08:03:31;7.95;;;4.28;;
7199;SDS011;3641;49.082;8.200;2023-11-21T08:05:59;8.82;;;5.30;;
7199;SDS011;3641;49.082;8.200;2023-11-21T08:08:28;7.20;;;4.70;;
7199;SDS011;3641;49.082;8.200;2023-11-21T08:10:54;8.18;;;4.72;;
7199;SDS011;3641;49.082;8.200;2023-11-21T08:13:22;9.15;;;4.97;;
7199;SDS011;3641;49.082;8.200;2023-11-21T08:15:48;10.27;;;6.60;;
7199;SDS011;3641;49.082;8.200;2023-11-21T08:18:15;10.57;;;5.53;;
7199;SDS011;3641;49.082;8.200;2023-11-21T08:20:42;6.03;;;3.40;;
7199;SDS011;3641;49.082;8.200;2023-11-21T08:23:11;8.95;;;4.55;;
7199;SDS011;3641;49.082;8.200;2023-11-21T08:25:37;8.90;;;4.70;;
7199;SDS011;3641;49.082;8.200;2023-11-21T08:28:04;8.13;;;4.57;;
7199;SDS011;3641;49.082;8.200;2023-11-21T08:30:30;6.47;;;3.78;;
7199;SDS011;3641;49.082;8.200;2023-11-21T08:32:57;6.63;;;3.95;;
7199;SDS011;3641;49.082;8.200;2023-11-21T08:35:23;7.97;;;3.78;;
7199;SDS011;3641;49.082;8.200;2023-11-21T08:37:50;5.60;;;3.58;;
7199;SDS011;3641;49.082;8.200;2023-11-21T08:40:19;7.90;;;3.65;;
7199;SDS011;3641;49.082;8.200;2023-11-21T08:42:46;6.72;;;4.00;;
7199;SDS011;3641;49.082;8.200;2023-11-21T08:45:13;5.90;;;3.55;;
7199;SDS011;3641;49.082;8.200;2023-11-21T08:47:39;9.60;;;4.07;;
7199;SDS011;3641;49.082;8.200;2023-11-21T08:50:06;6.55;;;4.15;;
7199;SDS011;3641;49.082;8.200;2023-11-21T08:52:33;9.20;;;5.47;;
7199;SDS011;3641;49.082;8.200;2023-11-21T08:55:02;8.35;;;5.10;;
7199;SDS011;3641;49.082;8.200;2023-11-21T08:57:34;8.40;;;5.55;;
7199;SDS011;3641;49.082;8.200;2023-11-21T09:00:01;7.72;;;4.35;;
7199;SDS011;3641;49.082;8.200;2023-11-21T09:02:27;9.73;;;5.03;;
7199;SDS011;3641;49.082;8.200;2023-11-21T09:04:54;9.18;;;6.03;;
7199;SDS011;3641;49.082;8.200;2023-11-21T09:07:20;8.48;;;4.72;;
7199;SDS011;3641;49.082;8.200;2023-11-21T09:09:46;8.77;;;4.72;;
7199;SDS011;3641;49.082;8.200;2023-11-21T09:12:13;6.78;;;4.53;;
7199;SDS011;3641;49.082;8.200;2023-11-21T09:14:42;9.20;;;4.93;;
7199;SDS011;3641;49.082;8.200;2023-11-21T09:17:09;9.07;;;5.18;;
7199;SDS011;3641;49.082;8.200;2023-11-21T09:19:36;7.88;;;5.55;;
7199;SDS011;3641;49.082;8.200;2023-11-21T09:22:03;10.43;;;6.15;;
7199;SDS011;3641;49.082;8.200;2023-11-21T09:24:31;10.68;;;6.07;;
7199;SDS011;3641;49.082;8.200;2023-11-21T09:26:57;11.05;;;6.53;;
7199;SDS011;3641;49.082;8.200;2023-11-21T09:29:25;11.25;;;5.93;;
7199;SDS011;3641;49.082;8.200;2023-11-21T09:31:52;10.13;;;6.45;;
7199;SDS011;3641;49.082;8.200;2023-11-21T09:34:19;9.45;;;5.50;;
7199;SDS011;3641;49.082;8.200;2023-11-21T09:36:46;9.50;;;5.97;;
7199;SDS011;3641;49.082;8.200;2023-11-21T09:39:13;9.35;;;5.75;;
7199;SDS011;3641;49.082;8.200;2023-11-21T09:41:42;8.38;;;5.07;;
7199;SDS011;3641;49.082;8.200;2023-11-21T09:44:11;9.77;;;5.05;;
7199;SDS011;3641;49.082;8.200;2023-11-21T09:46:40;8.68;;;4.90;;
7199;SDS011;3641;49.082;8.200;2023-11-21T09:49:09;12.13;;;5.75;;
7199;SDS011;3641;49.082;8.200;2023-11-21T09:51:38;10.55;;;5.13;;
7199;SDS011;3641;49.082;8.200;2023-11-21T09:54:05;9.63;;;4.82;;
7199;SDS011;3641;49.082;8.200;2023-11-21T09:56:34;10.63;;;5.93;;
7199;SDS011;3641;49.082;8.200;2023-11-21T09:59:01;8.55;;;5.20;;
7199;SDS011;3641;49.082;8.200;2023-11-21T10:01:32;10.88;;;6.03;;
7199;SDS011;3641;49.082;8.200;2023-11-21T10:03:59;11.27;;;6.45;;
7199;SDS011;3641;49.082;8.200;2023-11-21T10:06:30;9.50;;;5.25;;
7199;SDS011;3641;49.082;8.200;2023-11-21T10:08:57;9.82;;;5.30;;
7199;SDS011;3641;49.082;8.200;2023-11-21T10:11:25;10.73;;;5.35;;
7199;SDS011;3641;49.082;8.200;2023-11-21T10:13:55;7.82;;;4.05;;
7199;SDS011;3641;49.082;8.200;2023-11-21T10:16:23;8.43;;;4.55;;
7199;SDS011;3641;49.082;8.200;2023-11-21T10:18:52;9.00;;;4.10;;
7199;SDS011;3641;49.082;8.200;2023-11-21T10:21:20;8.13;;;5.03;;
7199;SDS011;3641;49.082;8.200;2023-11-21T10:23:48;8.68;;;3.78;;
7199;SDS011;3641;49.082;8.200;2023-11-21T10:26:16;7.90;;;3.78;;
7199;SDS011;3641;49.082;8.200;2023-11-21T10:28:54;11.43;;;3.97;;
7199;SDS011;3641;49.082;8.200;2023-11-21T10:31:21;6.15;;;3.08;;
7199;SDS011;3641;49.082;8.200;2023-11-21T10:33:49;5.75;;;3.05;;
7199;SDS011;3641;49.082;8.200;2023-11-21T10:36:19;5.68;;;2.92;;
7199;SDS011;3641;49.082;8.200;2023-11-21T10:38:52;6.30;;;2.80;;
7199;SDS011;3641;49.082;8.200;2023-11-21T10:41:19;4.78;;;2.33;;
7199;SDS011;3641;49.082;8.200;2023-11-21T10:43:46;6.05;;;3.00;;
7199;SDS011;3641;49.082;8.200;2023-11-21T10:46:13;6.72;;;3.20;;
7199;SDS011;3641;49.082;8.200;2023-11-21T10:48:41;5.25;;;2.92;;
7199;SDS011;3641;49.082;8.200;2023-11-21T10:51:08;6.20;;;3.15;;
7199;SDS011;3641;49.082;8.200;2023-11-21T10:53:37;37.65;;;10.35;;
7199;SDS011;3641;49.082;8.200;2023-11-21T10:56:06;7.72;;;2.90;;
7199;SDS011;3641;49.082;8.200;2023-11-21T10:58:36;4.95;;;2.65;;
7199;SDS011;3641;49.082;8.200;2023-11-21T11:01:06;4.40;;;2.90;;
7199;SDS011;3641;49.082;8.200;2023-11-21T11:03:33;8.82;;;3.20;;
7199;SDS011;3641;49.082;8.200;2023-11-21T11:06:02;4.97;;;3.10;;
7199;SDS011;3641;49.082;8.200;2023-11-21T11:08:32;6.70;;;3.40;;
7199;SDS011;3641;49.082;8.200;2023-11-21T11:11:01;6.05;;;3.72;;
7199;SDS011;3641;49.082;8.200;2023-11-21T11:13:28;6.82;;;3.60;;
7199;SDS011;3641;49.082;8.200;2023-11-21T11:15:57;5.95;;;3.70;;
7199;SDS011;3641;49.082;8.200;2023-11-21T11:18:26;6.25;;;3.50;;
7199;SDS011;3641;49.082;8.200;2023-11-21T11:20:53;8.50;;;3.55;;
7199;SDS011;3641;49.082;8.200;2023-11-21T11:23:29;6.82;;;3.92;;
7199;SDS011;3641;49.082;8.200;2023-11-21T11:26:07;10.30;;;4.57;;
7199;SDS011;3641;49.082;8.200;2023-11-21T11:28:47;7.50;;;3.95;;
7199;SDS011;3641;49.082;8.200;2023-11-21T11:31:21;6.68;;;4.10;;
7199;SDS011;3641;49.082;8.200;2023-11-21T11:33:58;6.80;;;3.95;;
7199;SDS011;3641;49.082;8.200;2023-11-21T11:36:31;7.60;;;4.15;;
7199;SDS011;3641;49.082;8.200;2023-11-21T11:39:02;8.48;;;4.38;;
7199;SDS011;3641;49.082;8.200;2023-11-21T11:41:30;6.85;;;4.07;;
7199;SDS011;3641;49.082;8.200;2023-11-21T11:44:01;6.85;;;3.38;;
7199;SDS011;3641;49.082;8.200;2023-11-21T11:46:40;8.65;;;3.70;;
7199;SDS011;3641;49.082;8.200;2023-11-21T11:49:07;7.82;;;3.80;;
7199;SDS011;3641;49.082;8.200;2023-11-21T11:51:34;9.23;;;3.70;;
7199;SDS011;3641;49.082;8.200;2023-11-21T11:54:01;9.07;;;3.17;;
7199;SDS011;3641;49.082;8.200;2023-11-21T11:56:28;5.13;;;3.08;;
7199;SDS011;3641;49.082;8.200;2023-11-21T11:58:59;9.88;;;3.40;;
7199;SDS011;3641;49.082;8.200;2023-11-21T12:01:28;6.70;;;3.50;;
7199;SDS011;3641;49.082;8.200;2023-11-21T12:06:56;4.93;;;3.10;;
7199;SDS011;3641;49.082;8.200;2023-11-21T12:09:27;5.55;;;2.80;;
7199;SDS011;3641;49.082;8.200;2023-11-21T12:11:55;5.25;;;2.92;;
7199;SDS011;3641;49.082;8.200;2023-11-21T12:14:23;6.07;;;3.22;;
7199;SDS011;3641;49.082;8.200;2023-11-21T12:16:50;9.25;;;2.70;;
7199;SDS011;3641;49.082;8.200;2023-11-21T12:19:17;5.15;;;2.50;;
7199;SDS011;3641;49.082;8.200;2023-11-21T12:21:45;6.70;;;2.63;;
7199;SDS011;3641;49.082;8.200;2023-11-21T12:24:13;6.10;;;2.25;;
7199;SDS011;3641;49.082;8.200;2023-11-21T12:26:41;5.30;;;2.60;;
7199;SDS011;3641;49.082;8.200;2023-11-21T12:29:09;3.65;;;2.28;;
7199;SDS011;3641;49.082;8.200;2023-11-21T12:31:37;3.17;;;2.10;;
7199;SDS011;3641;49.082;8.200;2023-11-21T12:34:03;4.63;;;2.67;;
7199;SDS011;3641;49.082;8.200;2023-11-21T12:36:31;4.82;;;2.83;;
7199;SDS011;3641;49.082;8.200;2023-11-21T12:38:59;6.65;;;3.22;;
7199;SDS011;3641;49.082;8.200;2023-11-21T12:41:27;6.30;;;3.20;;
7199;SDS011;3641;49.082;8.200;2023-11-21T12:43:54;8.88;;;3.60;;
7199;SDS011;3641;49.082;8.200;2023-11-21T12:46:21;6.13;;;3.47;;
7199;SDS011;3641;49.082;8.200;2023-11-21T12:48:49;6.88;;;4.03;;
7199;SDS011;3641;49.082;8.200;2023-11-21T12:51:16;9.80;;;4.30;;
7199;SDS011;3641;49.082;8.200;2023-11-21T12:53:43;9.23;;;3.83;;
7199;SDS011;3641;49.082;8.200;2023-11-21T12:56:10;8.55;;;3.80;;
7199;SDS011;3641;49.082;8.200;2023-11-21T12:58:37;8.77;;;3.58;;
7199;SDS011;3641;49.082;8.200;2023-11-21T13:01:05;6.47;;;3.80;;
7199;SDS011;3641;49.082;8.200;2023-11-21T13:03:37;8.85;;;3.38;;
7199;SDS011;3641;49.082;8.200;2023-11-21T13:06:06;13.30;;;3.97;;
7199;SDS011;3641;49.082;8.200;2023-11-21T13:08:33;9.50;;;3.88;;
7199;SDS011;3641;49.082;8.200;2023-11-21T13:11:00;11.38;;;4.05;;
7199;SDS011;3641;49.082;8.200;2023-11-21T13:13:28;9.13;;;4.03;;
7199;SDS011;3641;49.082;8.200;2023-11-21T13:15:56;6.88;;;3.60;;
7199;SDS011;3641;49.082;8.200;2023-11-21T13:18:25;6.05;;;3.10;;
7199;SDS011;3641;49.082;8.200;2023-11-21T13:20:53;10.40;;;3.70;;
7199;SDS011;3641;49.082;8.200;2023-11-21T13:23:21;7.05;;;3.40;;
7199;SDS011;3641;49.082;8.200;2023-11-21T13:25:48;6.13;;;3.53;;
7199;SDS011;3641;49.082;8.200;2023-11-21T13:28:15;7.68;;;3.53;;
7199;SDS011;3641;49.082;8.200;2023-11-21T13:30:41;6.43;;;3.25;;
7199;SDS011;3641;49.082;8.200;2023-11-21T13:33:09;5.72;;;3.13;;
7199;SDS011;3641;49.082;8.200;2023-11-21T13:35:38;7.18;;;3.30;;
7199;SDS011;3641;49.082;8.200;2023-11-21T13:38:07;7.53;;;3.40;;
7199;SDS011;3641;49.082;8.200;2023-11-21T13:40:36;8.73;;;3.63;;
7199;SDS011;3641;49.082;8.200;2023-11-21T13:43:08;7.40;;;3.83;;
7199;SDS011;3641;49.082;8.200;2023-11-21T13:45:35;5.97;;;3.42;;
7199;SDS011;3641;49.082;8.200;2023-11-21T13:48:01;8.73;;;3.97;;
7199;SDS011;3641;49.082;8.200;2023-11-21T13:50:31;7.13;;;3.63;;
7199;SDS011;3641;49.082;8.200;2023-11-21T13:52:59;8.05;;;3.97;;
7199;SDS011;3641;49.082;8.200;2023-11-21T13:55:28;7.53;;;3.47;;
7199;SDS011;3641;49.082;8.200;2023-11-21T13:57:56;5.82;;;3.53;;
7199;SDS011;3641;49.082;8.200;2023-11-21T14:00:24;7.47;;;2.90;;
7199;SDS011;3641;49.082;8.200;2023-11-21T14:03:06;7.40;;;3.00;;
7199;SDS011;3641;49.082;8.200;2023-11-21T14:05:41;6.82;;;3.10;;
7199;SDS011;3641;49.082;8.200;2023-11-21T14:08:08;8.35;;;3.10;;
7199;SDS011;3641;49.082;8.200;2023-11-21T14:10:37;6.78;;;2.75;;
7199;SDS011;3641;49.082;8.200;2023-11-21T14:13:09;7.13;;;2.35;;
7199;SDS011;3641;49.082;8.200;2023-11-21T14:15:36;6.22;;;2.40;;
7199;SDS011;3641;49.082;8.200;2023-11-21T14:18:06;7.35;;;2.80;;
7199;SDS011;3641;49.082;8.200;2023-11-21T14:20:36;8.55;;;2.55;;
7199;SDS011;3641;49.082;8.200;2023-11-21T14:23:02;7.05;;;2.63;;
7199;SDS011;3641;49.082;8.200;2023-11-21T14:25:29;6.72;;;2.58;;
7199;SDS011;3641;49.082;8.200;2023-11-21T14:27:55;8.18;;;2.63;;
7199;SDS011;3641;49.082;8.200;2023-11-21T14:30:23;6.75;;;2.65;;
7199;SDS011;3641;49.082;8.200;2023-11-21T14:32:51;4.80;;;2.40;;
7199;SDS011;3641;49.082;8.200;2023-11-21T14:35:17;7.32;;;2.95;;
7199;SDS011;3641;49.082;8.200;2023-11-21T14:37:44;11.38;;;4.50;;
7199;SDS011;3641;49.082;8.200;2023-11-21T14:40:11;6.50;;;2.88;;
7199;SDS011;3641;49.082;8.200;2023-11-21T14:42:40;10.15;;;3.90;;
7199;SDS011;3641;49.082;8.200;2023-11-21T14:45:08;9.30;;;3.95;;
7199;SDS011;3641;49.082;8.200;2023-11-21T14:47:38;6.78;;;3.28;;
7199;SDS011;3641;49.082;8.200;2023-11-21T14:50:09;9.18;;;2.90;;
7199;SDS011;3641;49.082;8.200;2023-11-21T14:53:04;5.85;;;3.13;;
7199;SDS011;3641;49.082;8.200;2023-11-21T14:55:31;9.32;;;4.15;;
7199;SDS011;3641;49.082;8.200;2023-11-21T14:58:04;8.93;;;3.38;;
7199;SDS011;3641;49.082;8.200;2023-11-21T15:00:29;9.40;;;3.20;;
7199;SDS011;3641;49.082;8.200;2023-11-21T15:03:11;5.97;;;2.95;;
7199;SDS011;3641;49.082;8.200;2023-11-21T15:05:50;9.30;;;3.85;;
7199;SDS011;3641;49.082;8.200;2023-11-21T15:08:16;7.20;;;2.92;;
7199;SDS011;3641;49.082;8.200;2023-11-21T15:10:47;6.40;;;2.90;;
7199;SDS011;3641;49.082;8.200;2023-11-21T15:13:18;6.93;;;2.95;;
7199;SDS011;3641;49.082;8.200;2023-11-21T15:15:43;8.20;;;3.28;;
7199;SDS011;3641;49.082;8.200;2023-11-21T15:18:11;10.90;;;3.17;;